Norwegian Epic — C6XP7 — position and weather

sailwx.info

Track history (hours):
 
Tides and Currents Weather Stations Pressure Air Temp Water Temp Dewpoint Dewpoint Depression Visibility Wind Speed Wind Dir Waves Ship Positions

Norwegian Epic

Last reported at 2014-Sep-03 00:00 UTC. Time now 2014-Sep-03 02:31 UTC.
Position N 41°24' E 012°06'.

Length 329 m; draft 9 m.

Type: Passenger vessel. MMSI: 311018500.

Wind from 150 at 17 knots

Waves 2.5 meters (8 feet), 1 second period

Barometer 1017.0 mb
Air temperature 20.5 ° C
Dewpoint 13.1 ° C
Water temperature 22.0 ° C

Date/timePositionNaut miles runAvg speedWind from/ knotsBaromVisibWave heightAir tempDewpointWater temp
2014-Sep-03 00:00N 41°24' E 012°06'10217.1 150 / 171017.0 2.520.513.122.0
2014-Sep-02 18:00N 40°36' E 014°06'64 3.6 260 / 131006.0 5.4 23.0 23.0
2014-Sep-02 00:00N 40°42' E 012°42'26014.4 340 / 291012.0 4.021.819.121.0
2014-Sep-01 06:00N 41°12' E 007°00'9216.4 340 / 361009.010.8 22.0 23.0
2014-Sep-01 00:23N 41°16' E 004°57'3317.1
2014-Aug-31 22:27N 41°16' E 004°14'1517.4
2014-Aug-31 21:33N 41°16' E 003°53'1817.7
2014-Aug-31 20:34N 41°16' E 003°29'1716.7
2014-Aug-31 19:31N 41°16' E 003°06'1716.6
2014-Aug-31 18:31N 41°16' E 002°44'1917.0
2014-Aug-31 17:25N 41°15' E 002°19'9 9.4
2014-Aug-31 16:27N 41°22' E 002°11'0 0.1
2014-Aug-31 14:05N 41°22' E 002°11'0 0.0
2014-Aug-31 11:13N 41°22' E 002°11'0 0.0
2014-Aug-31 10:31N 41°22' E 002°11'0 0.0
2014-Aug-31 09:32N 41°22' E 002°11'0 0.0
2014-Aug-31 08:33N 41°22' E 002°11'0 0.0
2014-Aug-31 07:33N 41°22' E 002°11'0 0.0
2014-Aug-31 06:31N 41°22' E 002°11'0 0.0
2014-Aug-31 05:26N 41°22' E 002°11'0 0.0
2014-Aug-31 04:29N 41°22' E 002°11'0 0.0
2014-Aug-31 03:30N 41°22' E 002°11'0 0.0
2014-Aug-31 02:24N 41°22' E 002°11'4 4.4
2014-Aug-31 01:33N 41°18' E 002°11'1615.9
2014-Aug-31 00:33N 41°02' E 002°12'1716.7
2014-Aug-30 23:34N 40°46' E 002°11'1817.8
2014-Aug-30 22:33N 40°28' E 002°12'1919.3
2014-Aug-30 21:33N 40°08' E 002°12'1919.2
2014-Aug-30 20:33N 39°49' E 002°12'1818.1
2014-Aug-30 19:33N 39°31' E 002°16'1515.1
2014-Aug-30 18:33N 39°27' E 002°35'7 6.5
2014-Aug-30 17:32N 39°33' E 002°38'0 0.0
2014-Aug-30 15:04N 39°33' E 002°38'0 0.0
2014-Aug-30 14:26N 39°33' E 002°38'0 0.0
2014-Aug-30 10:33N 39°33' E 002°38'9 8.4
2014-Aug-30 09:29N 39°25' E 002°33'1716.6
2014-Aug-30 08:28N 39°34' E 002°14'1819.7
2014-Aug-30 07:33N 39°49' E 002°27'2019.8
2014-Aug-30 06:33N 40°04' E 002°44'4 6.4
2014-Aug-30 06:00N 40°06' E 002°48'1637.0 100 / 131017.0 5.4 24.0 23.0
2014-Aug-30 05:33N 40°18' E 003°02'2020.1
2014-Aug-30 04:34N 40°32' E 003°20'2120.0
2014-Aug-30 03:29N 40°47' E 003°40'2921.4
2014-Aug-30 02:07N 41°08' E 004°08'1521.7
2014-Aug-30 01:27N 41°18' E 004°22'2021.4
2014-Aug-30 00:32N 41°32' E 004°41'712.9
2014-Aug-30 00:00N 41°36' E 004°48'1632.0 050 / 211016.0 2.023.619.823.4
2014-Aug-29 23:30N 41°48' E 005°02'1920.4
2014-Aug-29 22:33N 42°01' E 005°21'2120.9
2014-Aug-29 21:33N 42°16' E 005°41'2120.6
2014-Aug-29 20:32N 42°30' E 006°01'2020.4
2014-Aug-29 19:34N 42°45' E 006°20'2120.5
2014-Aug-29 18:33N 42°59' E 006°40'2020.3
2014-Aug-29 17:34N 43°16' E 006°55'1616.4
2014-Aug-29 16:33N 43°32' E 007°01'0 0.3
2014-Aug-29 15:28N 43°32' E 007°01'0 0.0
2014-Aug-29 14:29N 43°32' E 007°01'0 0.0
2014-Aug-29 13:33N 43°32' E 007°01'0 0.0
2014-Aug-29 12:30N 43°32' E 007°01'0 0.0
2014-Aug-29 11:31N 43°32' E 007°01'0 0.0
2014-Aug-29 10:32N 43°32' E 007°01'0 0.0
2014-Aug-29 09:20N 43°32' E 007°01'0 0.0
2014-Aug-29 08:33N 43°32' E 007°01'0 0.0
2014-Aug-29 07:28N 43°32' E 007°01'0 0.0
2014-Aug-29 06:28N 43°32' E 007°01'0 0.0
2014-Aug-29 05:33N 43°32' E 007°01'7 6.9
2014-Aug-29 04:33N 43°28' E 007°08'1514.8
2014-Aug-29 03:33N 43°28' E 007°28'1313.1
2014-Aug-29 02:33N 43°29' E 007°46'1313.3
2014-Aug-29 01:33N 43°30' E 008°05'1313.4
2014-Aug-29 00:33N 43°30' E 008°23'5 9.0
2014-Aug-29 00:00N 43°30' E 008°30'819.4 100 / 121015.0 1.022.518.820.5
2014-Aug-28 23:34N 43°30' E 008°42'1312.8
2014-Aug-28 22:33N 43°31' E 008°59'2411.9
2014-Aug-28 20:34N 43°31' E 009°32'1211.8
2014-Aug-28 19:34N 43°32' E 009°48'1111.2
2014-Aug-28 18:33N 43°30' E 010°04'1010.1
2014-Aug-28 17:33N 43°32' E 010°17'1 0.7
2014-Aug-28 16:32N 43°33' E 010°18'0 0.0
2014-Aug-28 15:33N 43°33' E 010°18'0 0.0
2014-Aug-28 14:32N 43°33' E 010°18'0 0.0
2014-Aug-28 13:32N 43°33' E 010°18'0 0.0
2014-Aug-28 12:33N 43°33' E 010°18'0 0.0
2014-Aug-28 11:31N 43°33' E 010°18'0 0.0
2014-Aug-28 10:31N 43°33' E 010°18'0 0.0
2014-Aug-28 09:32N 43°33' E 010°18'0 0.0
2014-Aug-28 08:33N 43°33' E 010°18'0 0.0
2014-Aug-28 07:33N 43°33' E 010°18'0 0.0
2014-Aug-28 06:33N 43°33' E 010°18'0 0.0
2014-Aug-28 05:33N 43°33' E 010°18'1 0.9
2014-Aug-28 04:34N 43°32' E 010°17'1010.4
2014-Aug-28 03:34N 43°23' E 010°11'1212.0
2014-Aug-28 02:33N 43°12' E 010°06'1515.4
2014-Aug-28 01:33N 42°57' E 009°59'2818.0
2014-Aug-28 00:00N 42°30' E 009°48'126 5.2 190 / 171012.0 2.024.517.724.0
2014-Aug-27 00:00N 41°24' E 012°12'6416.5 150 / 161014.0 1.024.021.124.0
2014-Aug-26 20:06N 40°41' E 013°16'1018.4
2014-Aug-26 19:33N 40°40' E 013°29'1918.7
2014-Aug-26 18:33N 40°38' E 013°53'6 9.9
2014-Aug-26 18:00N 40°36' E 014°00'19 6.6 240 / 111014.010.8 25.0 23.0
2014-Aug-26 15:11N 40°50' E 014°16'318 9.6
2014-Aug-25 06:08N 41°17' E 007°15'538.4
2014-Aug-25 06:00N 41°12' E 007°12'1618.2 350 / 71017.010.8 23.0 23.0
2014-Aug-25 05:07N 41°17' E 006°52'1117.6
2014-Aug-25 04:28N 41°17' E 006°37'3617.7
2014-Aug-25 02:25N 41°16' E 005°48'1517.6
2014-Aug-25 01:32N 41°16' E 005°28'2017.8
2014-Aug-25 00:26N 41°16' E 005°01'1125.0
2014-Aug-25 00:00N 41°12' E 004°48'715.3 270 / 171018.0 2.024.018.023.5
2014-Aug-24 23:33N 41°16' E 004°41'1817.5
2014-Aug-24 22:32N 41°16' E 004°18'1717.0
2014-Aug-24 21:31N 41°16' E 003°54'1717.9
2014-Aug-24 20:33N 41°16' E 003°32'1716.2
2014-Aug-24 19:30N 41°16' E 003°09'1616.7
2014-Aug-24 18:33N 41°16' E 002°48'1017.2
2014-Aug-24 18:00N 41°12' E 002°36'919.7 220 / 151017.010.8 24.0 23.0
2014-Aug-24 17:33N 41°16' E 002°26'1212.5
2014-Aug-24 16:33N 41°20' E 002°10'2 0.2
2014-Aug-24 07:14N 41°22' E 002°11'5 0.8
2014-Aug-24 01:25N 41°17' E 002°11'1416.6
2014-Aug-24 00:33N 41°03' E 002°11'  
Track history (hours):
 
Tides and Currents Weather Stations Pressure Air Temp Water Temp Dewpoint Dewpoint Depression Visibility Wind Speed Wind Dir Waves Ship Positions

Norwegian Epic

Last reported at 2014-Sep-03 00:00 UTC. Time now 2014-Sep-03 02:31 UTC.
Position N 41°24' E 012°06'.

Length 329 m; draft 9 m.

Type: Passenger vessel. MMSI: 311018500.

Wind from 150 at 17 knots

Waves 2.5 meters (8 feet), 1 second period

Barometer 1017.0 mb
Air temperature 20.5 ° C
Dewpoint 13.1 ° C
Water temperature 22.0 ° C

Date/timePositionNaut miles runAvg speedWind from/ knotsBaromVisibWave heightAir tempDewpointWater temp
2014-Sep-03 00:00N 41°24' E 012°06'10217.1 150 / 171017.0 2.520.513.122.0
2014-Sep-02 18:00N 40°36' E 014°06'64 3.6 260 / 131006.0 5.4 23.0 23.0
2014-Sep-02 00:00N 40°42' E 012°42'26014.4 340 / 291012.0 4.021.819.121.0
2014-Sep-01 06:00N 41°12' E 007°00'9216.4 340 / 361009.010.8 22.0 23.0
2014-Sep-01 00:23N 41°16' E 004°57'3317.1
2014-Aug-31 22:27N 41°16' E 004°14'1517.4
2014-Aug-31 21:33N 41°16' E 003°53'1817.7
2014-Aug-31 20:34N 41°16' E 003°29'1716.7
2014-Aug-31 19:31N 41°16' E 003°06'1716.6
2014-Aug-31 18:31N 41°16' E 002°44'1917.0
2014-Aug-31 17:25N 41°15' E 002°19'9 9.4
2014-Aug-31 16:27N 41°22' E 002°11'0 0.1
2014-Aug-31 14:05N 41°22' E 002°11'0 0.0
2014-Aug-31 11:13N 41°22' E 002°11'0 0.0
2014-Aug-31 10:31N 41°22' E 002°11'0 0.0
2014-Aug-31 09:32N 41°22' E 002°11'0 0.0
2014-Aug-31 08:33N 41°22' E 002°11'0 0.0
2014-Aug-31 07:33N 41°22' E 002°11'0 0.0
2014-Aug-31 06:31N 41°22' E 002°11'0 0.0
2014-Aug-31 05:26N 41°22' E 002°11'0 0.0
2014-Aug-31 04:29N 41°22' E 002°11'0 0.0
2014-Aug-31 03:30N 41°22' E 002°11'0 0.0
2014-Aug-31 02:24N 41°22' E 002°11'4 4.4
2014-Aug-31 01:33N 41°18' E 002°11'1615.9
2014-Aug-31 00:33N 41°02' E 002°12'1716.7
2014-Aug-30 23:34N 40°46' E 002°11'1817.8
2014-Aug-30 22:33N 40°28' E 002°12'1919.3
2014-Aug-30 21:33N 40°08' E 002°12'1919.2
2014-Aug-30 20:33N 39°49' E 002°12'1818.1
2014-Aug-30 19:33N 39°31' E 002°16'1515.1
2014-Aug-30 18:33N 39°27' E 002°35'7 6.5
2014-Aug-30 17:32N 39°33' E 002°38'0 0.0
2014-Aug-30 15:04N 39°33' E 002°38'0 0.0
2014-Aug-30 14:26N 39°33' E 002°38'0 0.0
2014-Aug-30 10:33N 39°33' E 002°38'9 8.4
2014-Aug-30 09:29N 39°25' E 002°33'1716.6
2014-Aug-30 08:28N 39°34' E 002°14'1819.7
2014-Aug-30 07:33N 39°49' E 002°27'2019.8
2014-Aug-30 06:33N 40°04' E 002°44'4 6.4
2014-Aug-30 06:00N 40°06' E 002°48'1637.0 100 / 131017.0 5.4 24.0 23.0
2014-Aug-30 05:33N 40°18' E 003°02'2020.1
2014-Aug-30 04:34N 40°32' E 003°20'2120.0
2014-Aug-30 03:29N 40°47' E 003°40'2921.4
2014-Aug-30 02:07N 41°08' E 004°08'1521.7
2014-Aug-30 01:27N 41°18' E 004°22'2021.4
2014-Aug-30 00:32N 41°32' E 004°41'712.9
2014-Aug-30 00:00N 41°36' E 004°48'1632.0 050 / 211016.0 2.023.619.823.4
2014-Aug-29 23:30N 41°48' E 005°02'1920.4
2014-Aug-29 22:33N 42°01' E 005°21'2120.9
2014-Aug-29 21:33N 42°16' E 005°41'2120.6
2014-Aug-29 20:32N 42°30' E 006°01'2020.4
2014-Aug-29 19:34N 42°45' E 006°20'2120.5
2014-Aug-29 18:33N 42°59' E 006°40'2020.3
2014-Aug-29 17:34N 43°16' E 006°55'1616.4
2014-Aug-29 16:33N 43°32' E 007°01'0 0.3
2014-Aug-29 15:28N 43°32' E 007°01'0 0.0
2014-Aug-29 14:29N 43°32' E 007°01'0 0.0
2014-Aug-29 13:33N 43°32' E 007°01'0 0.0
2014-Aug-29 12:30N 43°32' E 007°01'0 0.0
2014-Aug-29 11:31N 43°32' E 007°01'0 0.0
2014-Aug-29 10:32N 43°32' E 007°01'0 0.0
2014-Aug-29 09:20N 43°32' E 007°01'0 0.0
2014-Aug-29 08:33N 43°32' E 007°01'0 0.0
2014-Aug-29 07:28N 43°32' E 007°01'0 0.0
2014-Aug-29 06:28N 43°32' E 007°01'0 0.0
2014-Aug-29 05:33N 43°32' E 007°01'7 6.9
2014-Aug-29 04:33N 43°28' E 007°08'1514.8
2014-Aug-29 03:33N 43°28' E 007°28'1313.1
2014-Aug-29 02:33N 43°29' E 007°46'1313.3
2014-Aug-29 01:33N 43°30' E 008°05'1313.4
2014-Aug-29 00:33N 43°30' E 008°23'5 9.0
2014-Aug-29 00:00N 43°30' E 008°30'819.4 100 / 121015.0 1.022.518.820.5
2014-Aug-28 23:34N 43°30' E 008°42'1312.8
2014-Aug-28 22:33N 43°31' E 008°59'2411.9
2014-Aug-28 20:34N 43°31' E 009°32'1211.8
2014-Aug-28 19:34N 43°32' E 009°48'1111.2
2014-Aug-28 18:33N 43°30' E 010°04'1010.1
2014-Aug-28 17:33N 43°32' E 010°17'1 0.7
2014-Aug-28 16:32N 43°33' E 010°18'0 0.0
2014-Aug-28 15:33N 43°33' E 010°18'0 0.0
2014-Aug-28 14:32N 43°33' E 010°18'0 0.0
2014-Aug-28 13:32N 43°33' E 010°18'0 0.0
2014-Aug-28 12:33N 43°33' E 010°18'0 0.0
2014-Aug-28 11:31N 43°33' E 010°18'0 0.0
2014-Aug-28 10:31N 43°33' E 010°18'0 0.0
2014-Aug-28 09:32N 43°33' E 010°18'0 0.0
2014-Aug-28 08:33N 43°33' E 010°18'0 0.0
2014-Aug-28 07:33N 43°33' E 010°18'0 0.0
2014-Aug-28 06:33N 43°33' E 010°18'0 0.0
2014-Aug-28 05:33N 43°33' E 010°18'1 0.9
2014-Aug-28 04:34N 43°32' E 010°17'1010.4
2014-Aug-28 03:34N 43°23' E 010°11'1212.0
2014-Aug-28 02:33N 43°12' E 010°06'1515.4
2014-Aug-28 01:33N 42°57' E 009°59'2818.0
2014-Aug-28 00:00N 42°30' E 009°48'126 5.2 190 / 171012.0 2.024.517.724.0
2014-Aug-27 00:00N 41°24' E 012°12'6416.5 150 / 161014.0 1.024.021.124.0
2014-Aug-26 20:06N 40°41' E 013°16'1018.4
2014-Aug-26 19:33N 40°40' E 013°29'1918.7
2014-Aug-26 18:33N 40°38' E 013°53'6 9.9
2014-Aug-26 18:00N 40°36' E 014°00'19 6.6 240 / 111014.010.8 25.0 23.0
2014-Aug-26 15:11N 40°50' E 014°16'318 9.6
2014-Aug-25 06:08N 41°17' E 007°15'538.4
2014-Aug-25 06:00N 41°12' E 007°12'1618.2 350 / 71017.010.8 23.0 23.0
2014-Aug-25 05:07N 41°17' E 006°52'1117.6
2014-Aug-25 04:28N 41°17' E 006°37'3617.7
2014-Aug-25 02:25N 41°16' E 005°48'1517.6
2014-Aug-25 01:32N 41°16' E 005°28'2017.8
2014-Aug-25 00:26N 41°16' E 005°01'1125.0
2014-Aug-25 00:00N 41°12' E 004°48'715.3 270 / 171018.0 2.024.018.023.5
2014-Aug-24 23:33N 41°16' E 004°41'1817.5
2014-Aug-24 22:32N 41°16' E 004°18'1717.0
2014-Aug-24 21:31N 41°16' E 003°54'1717.9
2014-Aug-24 20:33N 41°16' E 003°32'1716.2
2014-Aug-24 19:30N 41°16' E 003°09'1616.7
2014-Aug-24 18:33N 41°16' E 002°48'1017.2
2014-Aug-24 18:00N 41°12' E 002°36'919.7 220 / 151017.010.8 24.0 23.0
2014-Aug-24 17:33N 41°16' E 002°26'1212.5
2014-Aug-24 16:33N 41°20' E 002°10'2 0.2
2014-Aug-24 07:14N 41°22' E 002°11'5 0.8
2014-Aug-24 01:25N 41°17' E 002°11'1416.6
2014-Aug-24 00:33N 41°03' E 002°11'  

Dump ship's entire track history